Time;durP1;ratioP1;P1;durP2;ratioP2;P2;SDS_P1;SDS_P2;PMS_P1;PMS_P2;Temp;Humidity;BMP_temperature;BMP_pressure;BME280_temperature;BME280_humidity;BME280_pressure;Samples;Min_cycle;Max_cycle;Signal;HPM_P1;HPM_P2
2021/03/13 00:00:43;;;;;;;13.33;2.80;;;;;;;;;;5071337;28;20226;-80
2021/03/13 00:03:08;;;;;;;10.77;1.97;;;;;;;;;;5070011;28;20089;-80
2021/03/13 00:05:35;;;;;;;12.47;2.20;;;;;;;;;;5069779;28;20037;-80
2021/03/13 00:08:00;;;;;;;14.13;2.27;;;;;;;;;;5070325;28;20016;-80
2021/03/13 00:10:25;;;;;;;11.10;2.07;;;;;;;;;;5070029;28;20366;-80
2021/03/13 00:12:51;;;;;;;10.63;2.17;;;;;;;;;;5064346;28;20030;-80
2021/03/13 00:15:16;;;;;;;8.77;2.30;;;;;;;;;;5069812;28;20368;-80
2021/03/13 00:17:43;;;;;;;11.53;3.03;;;;;;;;;;5069671;28;20472;-80
2021/03/13 00:20:08;;;;;;;11.57;2.27;;;;;;;;;;5070063;28;20024;-80
2021/03/13 00:22:34;;;;;;;9.40;2.10;;;;;;;;;;5069464;28;20082;-80
2021/03/13 00:24:59;;;;;;;10.87;2.60;;;;;;;;;;5069869;28;20052;-80
2021/03/13 00:27:24;;;;;;;11.80;2.40;;;;;;;;;;5071094;28;20031;-80
2021/03/13 00:29:49;;;;;;;12.07;2.23;;;;;;;;;;5069042;28;20353;-81
2021/03/13 00:32:14;;;;;;;19.83;2.37;;;;;;;;;;5065865;28;20036;-81
2021/03/13 00:34:40;;;;;;;12.83;2.43;;;;;;;;;;5069523;28;20032;-81
2021/03/13 00:37:05;;;;;;;12.70;2.10;;;;;;;;;;5070089;28;20541;-81
2021/03/13 00:39:30;;;;;;;9.70;2.00;;;;;;;;;;5069485;28;20016;-81
2021/03/13 00:41:55;;;;;;;12.20;2.40;;;;;;;;;;5074715;28;20036;-80
2021/03/13 00:44:20;;;;;;;12.53;2.37;;;;;;;;;;5073717;28;20020;-80
2021/03/13 00:46:46;;;;;;;11.47;2.10;;;;;;;;;;5073055;28;20147;-80
2021/03/13 00:49:11;;;;;;;10.37;2.20;;;;;;;;;;5073658;28;20042;-80
2021/03/13 00:51:36;;;;;;;10.47;2.47;;;;;;;;;;5073048;28;20464;-81
2021/03/13 00:54:01;;;;;;;8.37;2.13;;;;;;;;;;5074816;28;20071;-81
2021/03/13 00:56:26;;;;;;;13.97;2.23;;;;;;;;;;5073002;28;20020;-80
2021/03/13 00:58:52;;;;;;;13.57;2.60;;;;;;;;;;5074343;28;20429;-80
2021/03/13 01:01:17;;;;;;;11.27;2.43;;;;;;;;;;5073069;28;20420;-80
2021/03/13 01:03:42;;;;;;;18.37;2.70;;;;;;;;;;5072739;28;20020;-80
2021/03/13 01:06:07;;;;;;;10.13;3.00;;;;;;;;;;5074506;28;20032;-81
2021/03/13 01:08:33;;;;;;;10.40;2.47;;;;;;;;;;5073324;28;20034;-80
2021/03/13 01:10:58;;;;;;;12.47;2.77;;;;;;;;;;5072678;28;20177;-80
2021/03/13 01:13:23;;;;;;;11.33;2.37;;;;;;;;;;5072907;28;20028;-80
2021/03/13 01:15:49;;;;;;;8.63;1.83;;;;;;;;;;5072225;28;20024;-80
2021/03/13 01:18:14;;;;;;;7.90;2.13;;;;;;;;;;5074380;28;20024;-80
2021/03/13 01:20:40;;;;;;;13.53;2.30;;;;;;;;;;5073697;28;20166;-80
2021/03/13 01:23:05;;;;;;;19.17;2.53;;;;;;;;;;5072938;28;20365;-80
2021/03/13 01:25:31;;;;;;;15.40;2.00;;;;;;;;;;5072427;28;20502;-81
2021/03/13 01:27:56;;;;;;;8.80;2.43;;;;;;;;;;5072755;28;20107;-81
2021/03/13 01:30:22;;;;;;;12.07;2.53;;;;;;;;;;5072980;28;20020;-80
2021/03/13 01:32:47;;;;;;;11.07;2.20;;;;;;;;;;5073514;28;20472;-80
2021/03/13 01:35:13;;;;;;;17.07;2.63;;;;;;;;;;5072508;28;20020;-80
2021/03/13 01:37:38;;;;;;;12.40;1.97;;;;;;;;;;5073771;28;20074;-80
2021/03/13 01:40:06;;;;;;;9.93;2.27;;;;;;;;;;5073576;28;20039;-80
2021/03/13 01:42:31;;;;;;;11.73;2.27;;;;;;;;;;5072782;28;20025;-80
2021/03/13 01:44:56;;;;;;;21.13;3.73;;;;;;;;;;5073436;28;20349;-80
2021/03/13 01:47:22;;;;;;;11.30;1.97;;;;;;;;;;5073933;28;20032;-79
2021/03/13 01:49:49;;;;;;;13.00;1.83;;;;;;;;;;5073248;28;20040;-80
2021/03/13 01:52:14;;;;;;;12.87;1.83;;;;;;;;;;5072715;28;20387;-81
2021/03/13 01:54:40;;;;;;;10.80;2.10;;;;;;;;;;5071952;28;20021;-80
2021/03/13 01:57:05;;;;;;;10.37;1.77;;;;;;;;;;5072095;28;20020;-80
2021/03/13 01:59:30;;;;;;;9.77;1.87;;;;;;;;;;5065894;28;20017;-81
2021/03/13 02:01:56;;;;;;;9.90;1.73;;;;;;;;;;5071540;28;20364;-80
2021/03/13 02:04:21;;;;;;;10.20;2.37;;;;;;;;;;5071940;28;20443;-81
2021/03/13 02:06:53;;;;;;;9.63;1.53;;;;;;;;;;5073074;28;20027;-81
2021/03/13 02:09:37;;;;;;;13.85;2.03;;;;;;;;;;5072067;28;20438;-80
2021/03/13 02:12:26;;;;;;;16.33;2.30;;;;;;;;;;5071448;28;20124;-80
2021/03/13 02:15:11;;;;;;;13.77;1.57;;;;;;;;;;5062410;28;20283;-80
2021/03/13 02:17:56;;;;;;;12.63;2.17;;;;;;;;;;5068018;28;20441;-80
2021/03/13 02:20:39;;;;;;;15.10;2.03;;;;;;;;;;5097244;28;20020;-80
2021/03/13 02:23:06;;;;;;;19.77;1.77;;;;;;;;;;5070849;28;20009;-80
2021/03/13 02:25:37;;;;;;;9.27;1.93;;;;;;;;;;5071710;28;20513;-80
2021/03/13 02:28:05;;;;;;;10.57;1.88;;;;;;;;;;5072398;28;20352;-80
2021/03/13 02:30:31;;;;;;;10.20;2.00;;;;;;;;;;5071456;28;20472;-80
2021/03/13 02:33:15;;;;;;;12.70;1.90;;;;;;;;;;5071524;28;20024;-80
2021/03/13 02:35:43;;;;;;;11.40;2.23;;;;;;;;;;5066676;28;20107;-80
2021/03/13 02:38:11;;;;;;;9.37;1.83;;;;;;;;;;5071102;28;20016;-80
2021/03/13 02:40:37;;;;;;;10.50;1.60;;;;;;;;;;5072882;28;20468;-80
2021/03/13 02:43:05;;;;;;;11.77;2.03;;;;;;;;;;5072534;28;20027;-80
2021/03/13 02:45:32;;;;;;;16.53;2.10;;;;;;;;;;5103554;28;20392;-80
2021/03/13 02:47:58;;;;;;;11.53;1.83;;;;;;;;;;5072468;28;20082;-80
2021/03/13 02:50:25;;;;;;;7.27;1.83;;;;;;;;;;5072263;28;20058;-80
2021/03/13 02:52:52;;;;;;;9.07;2.00;;;;;;;;;;5072605;28;20120;-80
2021/03/13 02:55:18;;;;;;;6.90;2.20;;;;;;;;;;5070867;28;20032;-80
2021/03/13 02:57:44;;;;;;;11.87;1.93;;;;;;;;;;5072651;28;20043;-80
2021/03/13 03:00:10;;;;;;;9.13;1.93;;;;;;;;;;5070528;28;20804;-80
2021/03/13 03:02:37;;;;;;;14.10;2.30;;;;;;;;;;5069373;28;20062;-80
2021/03/13 03:05:03;;;;;;;7.67;1.43;;;;;;;;;;5102570;28;20481;-80
2021/03/13 03:07:29;;;;;;;10.47;1.80;;;;;;;;;;5070426;28;20062;-80
2021/03/13 03:09:54;;;;;;;9.37;2.13;;;;;;;;;;5072366;28;20024;-80
2021/03/13 03:12:20;;;;;;;11.43;2.50;;;;;;;;;;5070272;28;20031;-80
2021/03/13 03:14:46;;;;;;;9.73;1.97;;;;;;;;;;5070525;28;20024;-80
2021/03/13 03:17:12;;;;;;;7.30;1.97;;;;;;;;;;5070757;28;20468;-80
2021/03/13 03:19:39;;;;;;;17.77;2.77;;;;;;;;;;5071877;28;20134;-80
2021/03/13 03:22:04;;;;;;;12.97;3.20;;;;;;;;;;5070898;28;20017;-80
2021/03/13 03:24:29;;;;;;;7.60;2.27;;;;;;;;;;5070258;28;20017;-80
2021/03/13 03:26:55;;;;;;;10.67;2.47;;;;;;;;;;5071928;28;20034;-80
2021/03/13 03:29:20;;;;;;;12.20;2.40;;;;;;;;;;5070428;28;20016;-80
2021/03/13 03:31:45;;;;;;;12.87;3.27;;;;;;;;;;5070333;28;20460;-80
2021/03/13 03:34:10;;;;;;;18.27;3.27;;;;;;;;;;5070455;28;20494;-80
2021/03/13 03:36:36;;;;;;;9.20;2.40;;;;;;;;;;5070204;28;20024;-80
2021/03/13 03:39:01;;;;;;;13.10;2.50;;;;;;;;;;5095198;28;20426;-81
2021/03/13 03:41:29;;;;;;;17.60;3.63;;;;;;;;;;5070216;28;20017;-80
2021/03/13 03:43:57;;;;;;;12.00;3.27;;;;;;;;;;5070424;28;20041;-80
2021/03/13 03:46:23;;;;;;;13.53;2.63;;;;;;;;;;5070023;28;20028;-80
2021/03/13 03:48:50;;;;;;;12.27;2.53;;;;;;;;;;5070236;28;20119;-80
2021/03/13 03:51:15;;;;;;;10.70;2.73;;;;;;;;;;5070377;28;20062;-80
2021/03/13 03:53:42;;;;;;;14.67;2.33;;;;;;;;;;5070053;28;20437;-80
2021/03/13 03:56:09;;;;;;;7.20;2.37;;;;;;;;;;5070174;28;20368;-80
2021/03/13 03:58:38;;;;;;;12.27;2.20;;;;;;;;;;5070219;28;20128;-80
2021/03/13 04:01:05;;;;;;;10.07;2.47;;;;;;;;;;5071297;28;20060;-80
2021/03/13 04:03:31;;;;;;;6.47;1.30;;;;;;;;;;5070306;28;20032;-80
2021/03/13 04:05:56;;;;;;;6.53;1.90;;;;;;;;;;5071159;28;20028;-80
2021/03/13 04:08:22;;;;;;;10.60;1.67;;;;;;;;;;5071520;28;20032;-80
2021/03/13 04:10:48;;;;;;;12.23;2.00;;;;;;;;;;5069912;28;20468;-80
2021/03/13 04:13:15;;;;;;;8.70;1.60;;;;;;;;;;5070012;28;20095;-80
2021/03/13 04:15:41;;;;;;;10.33;1.83;;;;;;;;;;5072722;28;20036;-80
2021/03/13 04:18:06;;;;;;;11.73;2.17;;;;;;;;;;5075689;28;20066;-80
2021/03/13 04:20:32;;;;;;;11.43;2.00;;;;;;;;;;5073915;28;20027;-81
2021/03/13 04:22:57;;;;;;;10.70;1.70;;;;;;;;;;5075015;28;20107;-80
2021/03/13 04:25:22;;;;;;;16.20;2.80;;;;;;;;;;5073546;28;20028;-80
2021/03/13 04:27:48;;;;;;;11.43;1.30;;;;;;;;;;5073937;28;20024;-80
2021/03/13 04:30:18;;;;;;;6.90;1.30;;;;;;;;;;5069120;28;20467;-80
2021/03/13 04:32:47;;;;;;;9.47;1.77;;;;;;;;;;5073801;28;20037;-80
2021/03/13 04:35:13;;;;;;;5.80;1.27;;;;;;;;;;5073614;28;20032;-80
2021/03/13 04:37:39;;;;;;;8.13;1.37;;;;;;;;;;5073579;28;20090;-80
2021/03/13 04:40:05;;;;;;;6.60;1.93;;;;;;;;;;5074741;28;20021;-80
2021/03/13 04:42:31;;;;;;;5.23;1.00;;;;;;;;;;5075207;28;20041;-81
2021/03/13 04:44:56;;;;;;;4.87;1.27;;;;;;;;;;5074340;28;20238;-80
2021/03/13 04:47:22;;;;;;;12.60;2.50;;;;;;;;;;5075178;28;20017;-79
2021/03/13 04:49:47;;;;;;;10.20;1.67;;;;;;;;;;5074557;28;20527;-80
2021/03/13 04:52:12;;;;;;;8.47;1.33;;;;;;;;;;5074419;28;20028;-80
2021/03/13 04:54:37;;;;;;;18.67;2.10;;;;;;;;;;5073046;28;20119;-79
2021/03/13 04:57:03;;;;;;;11.63;1.60;;;;;;;;;;5072851;28;20056;-80
2021/03/13 04:59:29;;;;;;;14.40;1.93;;;;;;;;;;5073321;28;20021;-80
2021/03/13 05:01:54;;;;;;;13.43;2.20;;;;;;;;;;5072855;28;20130;-80
2021/03/13 05:04:19;;;;;;;11.97;2.30;;;;;;;;;;5074868;28;20066;-80
2021/03/13 05:06:45;;;;;;;11.13;1.60;;;;;;;;;;5074036;28;20025;-80
2021/03/13 05:09:10;;;;;;;15.40;2.10;;;;;;;;;;5074461;28;20047;-80
2021/03/13 05:11:35;;;;;;;13.70;1.83;;;;;;;;;;5072684;28;20024;-80
2021/03/13 05:14:01;;;;;;;16.47;2.50;;;;;;;;;;5073028;28;20025;-80
2021/03/13 05:16:27;;;;;;;15.30;2.13;;;;;;;;;;5072517;28;20054;-80
2021/03/13 05:18:52;;;;;;;9.47;1.90;;;;;;;;;;5073103;28;20225;-80
2021/03/13 05:21:17;;;;;;;13.03;2.10;;;;;;;;;;5074348;28;20448;-80
2021/03/13 05:23:43;;;;;;;16.23;2.43;;;;;;;;;;5073188;28;20028;-80
2021/03/13 05:26:09;;;;;;;15.53;2.13;;;;;;;;;;5071969;28;20013;-81
2021/03/13 05:28:34;;;;;;;14.70;2.30;;;;;;;;;;5072181;28;20451;-80
2021/03/13 05:30:59;;;;;;;12.37;1.90;;;;;;;;;;5073678;28;20029;-80
2021/03/13 05:33:24;;;;;;;13.33;1.60;;;;;;;;;;5072703;28;20020;-80
2021/03/13 05:35:50;;;;;;;11.77;1.90;;;;;;;;;;5072219;28;20017;-80
2021/03/13 05:38:15;;;;;;;11.40;2.47;;;;;;;;;;5072693;28;20023;-80
2021/03/13 05:40:40;;;;;;;10.33;1.83;;;;;;;;;;5072448;28;20559;-80
2021/03/13 05:43:06;;;;;;;13.20;1.80;;;;;;;;;;5072649;28;20468;-80
2021/03/13 05:45:32;;;;;;;12.23;1.90;;;;;;;;;;5073859;28;20027;-81
2021/03/13 05:47:57;;;;;;;15.40;1.67;;;;;;;;;;5073531;28;20044;-80
2021/03/13 05:50:23;;;;;;;14.03;1.70;;;;;;;;;;5072153;28;20032;-80
2021/03/13 05:52:52;;;;;;;14.70;2.63;;;;;;;;;;5072748;28;20023;-80
2021/03/13 05:55:17;;;;;;;13.10;2.10;;;;;;;;;;5073247;28;20402;-80
2021/03/13 05:57:43;;;;;;;16.43;1.83;;;;;;;;;;5072622;28;20025;-80
2021/03/13 06:00:08;;;;;;;5.57;1.57;;;;;;;;;;5071747;28;20380;-82
2021/03/13 06:02:35;;;;;;;8.30;1.40;;;;;;;;;;5073240;28;20020;-82
2021/03/13 06:05:00;;;;;;;9.93;1.00;;;;;;;;;;5073486;28;20470;-85
2021/03/13 06:07:25;;;;;;;4.00;0.83;;;;;;;;;;5071808;28;20106;-87
2021/03/13 06:09:54;;;;;;;6.77;0.73;;;;;;;;;;5071862;28;20102;-87
2021/03/13 06:12:20;;;;;;;6.27;0.73;;;;;;;;;;5071738;28;20123;-86
2021/03/13 06:14:46;;;;;;;4.43;0.67;;;;;;;;;;5071967;28;20440;-84
2021/03/13 06:17:12;;;;;;;3.27;0.60;;;;;;;;;;5072065;28;20472;-84
2021/03/13 06:19:46;;;;;;;3.60;0.80;;;;;;;;;;5071835;28;20063;-84
2021/03/13 06:22:31;;;;;;;5.10;1.10;;;;;;;;;;5071832;28;20024;-83
2021/03/13 06:25:15;;;;;;;4.57;0.70;;;;;;;;;;5071760;28;20111;-84
2021/03/13 06:27:41;;;;;;;4.07;1.00;;;;;;;;;;5072034;28;20377;-84
2021/03/13 06:30:07;;;;;;;8.07;0.93;;;;;;;;;;5071512;28;20028;-84
2021/03/13 06:32:36;;;;;;;5.60;0.90;;;;;;;;;;5071471;28;20028;-84
2021/03/13 06:35:20;;;;;;;5.87;0.80;;;;;;;;;;5071241;28;20020;-83
2021/03/13 06:37:45;;;;;;;4.63;0.90;;;;;;;;;;5071311;28;20036;-84
2021/03/13 06:40:23;;;;;;;4.97;0.80;;;;;;;;;;5072538;28;20052;-84
2021/03/13 06:42:49;;;;;;;7.57;0.97;;;;;;;;;;5066736;28;20040;-84
2021/03/13 06:45:18;;;;;;;4.07;0.87;;;;;;;;;;5070988;28;20056;-83
2021/03/13 06:47:43;;;;;;;2.07;0.47;;;;;;;;;;5071555;28;20125;-84
2021/03/13 06:50:09;;;;;;;4.40;0.70;;;;;;;;;;5072528;28;20052;-84
2021/03/13 06:52:34;;;;;;;2.83;0.87;;;;;;;;;;5071246;28;20028;-83
2021/03/13 06:55:00;;;;;;;7.10;0.67;;;;;;;;;;5071309;28;20048;-84
2021/03/13 06:57:25;;;;;;;5.70;1.10;;;;;;;;;;5071105;28;20460;-83
2021/03/13 06:59:50;;;;;;;3.07;0.50;;;;;;;;;;5071215;28;20017;-83
2021/03/13 07:02:20;;;;;;;2.93;0.67;;;;;;;;;;5070650;28;20024;-83
2021/03/13 07:04:45;;;;;;;4.70;0.93;;;;;;;;;;5071404;28;20052;-84
2021/03/13 07:07:11;;;;;;;5.50;0.67;;;;;;;;;;5071014;28;20024;-83
2021/03/13 07:09:47;;;;;;;5.13;1.10;;;;;;;;;;5070918;28;20035;-83
2021/03/13 07:12:29;;;;;;;3.83;0.90;;;;;;;;;;5070816;28;20029;-83
2021/03/13 07:14:55;;;;;;;3.97;0.70;;;;;;;;;;5070831;28;20036;-83
2021/03/13 07:17:23;;;;;;;6.23;0.90;;;;;;;;;;5070879;28;20055;-83
2021/03/13 07:19:48;;;;;;;7.07;1.23;;;;;;;;;;5070848;28;20035;-83
2021/03/13 07:22:13;;;;;;;6.60;1.00;;;;;;;;;;5072106;28;20099;-83
2021/03/13 07:24:49;;;;;;;9.07;1.17;;;;;;;;;;5070533;28;20029;-83
2021/03/13 07:27:16;;;;;;;8.63;1.53;;;;;;;;;;5070845;28;20035;-83
2021/03/13 07:29:44;;;;;;;12.40;1.53;;;;;;;;;;5071883;28;20029;-83
2021/03/13 07:32:13;;;;;;;10.13;1.53;;;;;;;;;;5070683;28;20032;-83
2021/03/13 07:34:40;;;;;;;9.67;1.73;;;;;;;;;;5071714;28;20107;-82
2021/03/13 07:37:07;;;;;;;16.60;1.70;;;;;;;;;;5070720;28;20033;-83
2021/03/13 07:39:34;;;;;;;10.83;1.10;;;;;;;;;;5070368;28;20123;-83
2021/03/13 07:42:04;;;;;;;9.03;1.50;;;;;;;;;;5070545;28;20112;-83
2021/03/13 07:44:30;;;;;;;12.87;1.47;;;;;;;;;;5070463;28;20047;-83
2021/03/13 07:46:56;;;;;;;10.77;1.53;;;;;;;;;;5070645;28;20657;-83
2021/03/13 07:49:22;;;;;;;9.17;1.63;;;;;;;;;;5071561;28;20027;-82
2021/03/13 07:51:47;;;;;;;15.37;1.40;;;;;;;;;;5069608;28;20111;-82
2021/03/13 07:54:13;;;;;;;11.63;1.80;;;;;;;;;;5069772;28;20029;-82
2021/03/13 07:56:40;;;;;;;17.73;1.80;;;;;;;;;;5069896;28;20051;-82
2021/03/13 07:59:08;;;;;;;9.30;1.93;;;;;;;;;;5070221;28;20016;-82
2021/03/13 08:01:50;;;;;;;8.60;1.33;;;;;;;;;;5070340;28;20025;-82
2021/03/13 08:04:34;;;;;;;13.13;2.13;;;;;;;;;;5065682;28;20020;-82
2021/03/13 08:06:59;;;;;;;6.47;1.27;;;;;;;;;;5068731;28;20115;-82
2021/03/13 08:09:24;;;;;;;8.77;0.93;;;;;;;;;;5069786;28;20056;-83
2021/03/13 08:11:50;;;;;;;15.47;1.70;;;;;;;;;;5069915;28;20100;-82
2021/03/13 08:14:29;;;;;;;11.90;1.67;;;;;;;;;;5070021;28;20042;-82
2021/03/13 08:17:04;;;;;;;11.73;1.60;;;;;;;;;;5068259;28;20024;-81
2021/03/13 08:19:33;;;;;;;12.10;1.73;;;;;;;;;;5070158;28;20036;-83
2021/03/13 08:22:18;;;;;;;9.43;1.27;;;;;;;;;;5069974;28;20043;-82
2021/03/13 08:24:43;;;;;;;12.53;1.80;;;;;;;;;;5069615;28;20028;-80
2021/03/13 08:27:09;;;;;;;7.00;1.40;;;;;;;;;;5071367;28;20026;-80
2021/03/13 08:29:45;;;;;;;12.27;1.80;;;;;;;;;;5071017;28;20016;-81
2021/03/13 08:32:10;;;;;;;9.37;1.70;;;;;;;;;;5061814;28;20048;-81
2021/03/13 08:34:36;;;;;;;15.27;1.80;;;;;;;;;;5070666;28;20048;-81
2021/03/13 08:37:13;;;;;;;11.90;1.30;;;;;;;;;;5068277;28;20021;-80
2021/03/13 08:39:38;;;;;;;12.40;2.20;;;;;;;;;;5069505;28;20020;-81
2021/03/13 08:42:04;;;;;;;13.30;1.77;;;;;;;;;;5069018;28;20361;-82
2021/03/13 08:44:30;;;;;;;12.83;1.57;;;;;;;;;;5070009;28;20025;-82
2021/03/13 08:47:03;;;;;;;11.77;2.27;;;;;;;;;;5074567;28;20078;-82
2021/03/13 08:49:29;;;;;;;22.27;3.23;;;;;;;;;;5069716;28;20024;-82
2021/03/13 08:52:07;;;;;;;11.50;1.73;;;;;;;;;;5069170;28;20025;-82
2021/03/13 08:54:38;;;;;;;16.80;2.53;;;;;;;;;;5068739;28;20123;-82
2021/03/13 08:57:04;;;;;;;17.13;3.70;;;;;;;;;;5068958;28;20024;-81
2021/03/13 08:59:29;;;;;;;19.53;2.80;;;;;;;;;;5069561;28;20265;-82
2021/03/13 09:02:01;;;;;;;22.10;3.70;;;;;;;;;;5069477;28;20020;-84
2021/03/13 09:04:26;;;;;;;20.80;3.03;;;;;;;;;;5069107;28;20460;-84
2021/03/13 09:06:52;;;;;;;23.87;3.20;;;;;;;;;;5071574;28;20028;-84
2021/03/13 09:09:17;;;;;;;20.70;2.90;;;;;;;;;;5069380;28;20035;-82
2021/03/13 09:11:54;;;;;;;25.47;4.23;;;;;;;;;;5072888;28;20031;-81
2021/03/13 09:14:20;;;;;;;21.97;4.37;;;;;;;;;;5072683;28;20513;-81
2021/03/13 09:16:46;;;;;;;22.27;2.70;;;;;;;;;;5074422;28;20120;-82
2021/03/13 09:19:14;;;;;;;28.83;4.00;;;;;;;;;;5072504;28;20027;-82
2021/03/13 09:21:47;;;;;;;25.43;4.00;;;;;;;;;;5073480;28;20044;-82
2021/03/13 09:24:17;;;;;;;26.57;4.17;;;;;;;;;;5074323;28;20024;-81
2021/03/13 09:26:42;;;;;;;22.70;2.60;;;;;;;;;;5073956;28;20031;-82
2021/03/13 09:29:08;;;;;;;25.07;3.33;;;;;;;;;;5072888;28;20456;-82
2021/03/13 09:31:34;;;;;;;23.80;3.47;;;;;;;;;;5072412;28;20373;-82
2021/03/13 09:34:32;;;;;;;26.43;2.67;;;;;;;;;;5072912;28;20078;-82
2021/03/13 09:36:57;;;;;;;20.17;3.57;;;;;;;;;;5053581;28;20044;-82
2021/03/13 09:39:24;;;;;;;23.53;3.50;;;;;;;;;;5072299;28;20016;-82
2021/03/13 09:42:04;;;;;;;25.43;3.27;;;;;;;;;;5072124;28;20037;-82
2021/03/13 09:44:49;;;;;;;20.30;3.17;;;;;;;;;;5072205;28;20082;-82
2021/03/13 09:47:30;;;;;;;23.43;3.60;;;;;;;;;;5094859;28;20047;-82
2021/03/13 09:49:56;;;;;;;15.33;2.83;;;;;;;;;;5072325;28;20048;-82
2021/03/13 09:52:26;;;;;;;23.33;4.30;;;;;;;;;;5072173;28;20027;-82
2021/03/13 09:55:06;;;;;;;22.97;2.90;;;;;;;;;;5073727;28;20027;-82
2021/03/13 09:57:31;;;;;;;23.53;3.27;;;;;;;;;;5092914;28;20028;-82
2021/03/13 09:59:56;;;;;;;27.00;3.37;;;;;;;;;;5063254;28;20489;-83
2021/03/13 10:02:22;;;;;;;20.47;3.53;;;;;;;;;;5068114;28;20111;-82
2021/03/13 10:04:48;;;;;;;24.27;3.93;;;;;;;;;;5069672;28;20451;-82
2021/03/13 10:07:15;;;;;;;25.33;3.73;;;;;;;;;;5068273;28;20024;-82
2021/03/13 10:09:53;;;;;;;29.33;4.50;;;;;;;;;;5071383;28;20129;-81
2021/03/13 10:12:29;;;;;;;26.47;3.27;;;;;;;;;;5069140;28;20115;-82
2021/03/13 10:14:54;;;;;;;29.00;4.53;;;;;;;;;;5068313;28;20107;-82
2021/03/13 10:17:20;;;;;;;22.20;4.70;;;;;;;;;;5069589;28;20631;-82
2021/03/13 10:19:45;;;;;;;32.00;4.37;;;;;;;;;;5073426;28;20019;-82
2021/03/13 10:22:20;;;;;;;23.43;3.93;;;;;;;;;;5072269;28;20024;-82
2021/03/13 10:24:47;;;;;;;21.20;3.00;;;;;;;;;;5071637;28;20024;-82
2021/03/13 10:27:18;;;;;;;24.80;3.10;;;;;;;;;;5075553;28;20028;-82
2021/03/13 10:29:48;;;;;;;21.40;3.57;;;;;;;;;;5074115;28;20082;-81
2021/03/13 10:32:13;;;;;;;24.17;3.23;;;;;;;;;;5071642;28;20085;-82
2021/03/13 10:34:38;;;;;;;24.57;3.67;;;;;;;;;;5071029;28;20020;-82
2021/03/13 10:37:04;;;;;;;23.23;3.07;;;;;;;;;;5070061;28;20107;-82
2021/03/13 10:39:29;;;;;;;21.80;2.97;;;;;;;;;;5063146;28;20051;-82
2021/03/13 10:42:00;;;;;;;21.87;2.27;;;;;;;;;;5071200;28;20023;-82
2021/03/13 10:44:25;;;;;;;26.23;4.57;;;;;;;;;;5071104;28;20012;-82
2021/03/13 10:46:50;;;;;;;16.63;1.87;;;;;;;;;;5065885;28;20503;-82
2021/03/13 10:49:24;;;;;;;20.30;3.20;;;;;;;;;;5071494;28;20043;-83
2021/03/13 10:51:51;;;;;;;30.53;4.23;;;;;;;;;;5070041;28;20044;-82
2021/03/13 10:54:28;;;;;;;23.67;3.47;;;;;;;;;;5071578;28;20395;-82
2021/03/13 10:56:53;;;;;;;15.50;2.60;;;;;;;;;;5073098;28;20019;-82
2021/03/13 10:59:34;;;;;;;26.33;4.27;;;;;;;;;;5062906;28;20025;-82
2021/03/13 11:01:59;;;;;;;24.20;5.23;;;;;;;;;;5065172;28;20044;-81
2021/03/13 11:04:24;;;;;;;32.77;4.27;;;;;;;;;;5071460;28;20044;-82
2021/03/13 11:06:53;;;;;;;18.47;3.60;;;;;;;;;;5070244;28;20063;-82
2021/03/13 11:09:20;;;;;;;25.07;4.20;;;;;;;;;;5067139;28;20420;-82
2021/03/13 11:11:45;;;;;;;25.57;4.80;;;;;;;;;;5068113;28;20038;-82
2021/03/13 11:14:10;;;;;;;24.00;4.07;;;;;;;;;;5072624;28;20032;-83
2021/03/13 11:16:36;;;;;;;22.63;2.83;;;;;;;;;;5072490;28;20024;-85
2021/03/13 11:19:01;;;;;;;25.60;3.43;;;;;;;;;;5071522;28;20031;-84
2021/03/13 11:21:27;;;;;;;26.03;3.43;;;;;;;;;;5071147;28;20021;-84
2021/03/13 11:23:52;;;;;;;22.77;3.43;;;;;;;;;;5064499;28;20067;-84
2021/03/13 11:26:18;;;;;;;24.67;3.50;;;;;;;;;;5066809;28;20119;-84
2021/03/13 11:28:44;;;;;;;17.17;2.40;;;;;;;;;;5071491;28;20129;-83
2021/03/13 11:31:10;;;;;;;23.43;3.53;;;;;;;;;;5070146;28;20119;-84
2021/03/13 11:33:35;;;;;;;26.93;3.53;;;;;;;;;;5094648;28;20491;-84
2021/03/13 11:36:00;;;;;;;22.57;3.57;;;;;;;;;;5072018;28;20012;-83
2021/03/13 11:38:26;;;;;;;24.13;3.97;;;;;;;;;;5071261;28;20099;-84
2021/03/13 11:40:51;;;;;;;17.87;3.10;;;;;;;;;;5071004;28;20035;-83
2021/03/13 11:43:16;;;;;;;25.57;4.27;;;;;;;;;;5071260;28;20028;-83
2021/03/13 11:45:41;;;;;;;28.40;4.47;;;;;;;;;;5070902;28;20087;-83
2021/03/13 11:48:07;;;;;;;24.37;4.73;;;;;;;;;;5071038;28;20052;-83
2021/03/13 11:50:32;;;;;;;21.03;4.20;;;;;;;;;;5070775;28;20112;-81
2021/03/13 11:52:57;;;;;;;19.63;3.00;;;;;;;;;;5072205;28;20104;-83
2021/03/13 11:55:24;;;;;;;23.33;4.10;;;;;;;;;;5070110;28;20020;-82
2021/03/13 11:57:49;;;;;;;22.57;4.40;;;;;;;;;;5070204;28;20253;-83
2021/03/13 12:00:15;;;;;;;32.33;4.87;;;;;;;;;;5069832;28;20511;-82
2021/03/13 12:02:40;;;;;;;25.00;3.63;;;;;;;;;;5079529;28;20117;-83
2021/03/13 12:05:06;;;;;;;23.90;4.13;;;;;;;;;;5070172;28;20356;-83
2021/03/13 12:07:31;;;;;;;23.13;3.40;;;;;;;;;;5070350;28;20058;-83
2021/03/13 12:09:57;;;;;;;28.60;4.47;;;;;;;;;;5070626;28;20117;-83
2021/03/13 12:12:22;;;;;;;27.53;5.33;;;;;;;;;;5100958;28;20111;-83
2021/03/13 12:14:50;;;;;;;20.67;3.13;;;;;;;;;;5071791;28;20412;-83
2021/03/13 12:17:15;;;;;;;21.50;2.80;;;;;;;;;;5069303;28;20033;-83
2021/03/13 12:19:41;;;;;;;21.53;2.80;;;;;;;;;;5070743;28;20021;-83
2021/03/13 12:22:06;;;;;;;24.10;3.00;;;;;;;;;;5070577;28;20044;-83
2021/03/13 12:24:32;;;;;;;16.97;2.33;;;;;;;;;;5070091;28;20375;-83
2021/03/13 12:26:57;;;;;;;27.47;2.83;;;;;;;;;;5069938;28;20021;-84
2021/03/13 12:29:22;;;;;;;23.77;3.63;;;;;;;;;;5070633;28;20035;-85
2021/03/13 12:31:47;;;;;;;20.40;3.47;;;;;;;;;;5065864;28;20024;-84
2021/03/13 12:34:13;;;;;;;28.37;2.70;;;;;;;;;;5068858;28;20484;-84
2021/03/13 12:36:38;;;;;;;19.93;3.10;;;;;;;;;;5071850;28;20029;-84
2021/03/13 12:39:03;;;;;;;19.83;3.40;;;;;;;;;;5074408;28;20027;-84
2021/03/13 12:41:29;;;;;;;19.77;3.50;;;;;;;;;;5074058;28;20060;-84
2021/03/13 12:43:54;;;;;;;25.47;3.27;;;;;;;;;;5074370;28;20024;-84
2021/03/13 12:46:19;;;;;;;24.77;3.83;;;;;;;;;;5073699;28;20021;-84
2021/03/13 12:48:48;;;;;;;18.57;2.57;;;;;;;;;;5073962;28;20027;-84
2021/03/13 12:51:14;;;;;;;19.37;3.07;;;;;;;;;;5073761;28;20021;-83
2021/03/13 12:53:40;;;;;;;14.10;2.50;;;;;;;;;;5073976;28;20411;-82
2021/03/13 12:56:05;;;;;;;11.67;2.60;;;;;;;;;;5073499;28;20051;-83
2021/03/13 12:58:30;;;;;;;15.93;1.87;;;;;;;;;;5073869;28;20022;-83
2021/03/13 13:00:55;;;;;;;14.53;2.00;;;;;;;;;;5073645;28;20035;-84
2021/03/13 13:03:21;;;;;;;14.33;2.27;;;;;;;;;;5073803;28;20016;-83
2021/03/13 13:05:46;;;;;;;14.03;1.87;;;;;;;;;;5074641;28;20027;-83
2021/03/13 13:08:11;;;;;;;16.17;2.20;;;;;;;;;;5073888;28;20043;-83
2021/03/13 13:10:36;;;;;;;13.07;2.10;;;;;;;;;;5073279;28;20027;-83
2021/03/13 13:13:02;;;;;;;13.97;1.53;;;;;;;;;;5073093;28;20030;-84
2021/03/13 13:15:27;;;;;;;14.60;2.17;;;;;;;;;;5066376;28;20017;-83
2021/03/13 13:17:52;;;;;;;23.70;3.20;;;;;;;;;;5065644;28;20028;-83
2021/03/13 13:20:18;;;;;;;16.90;2.63;;;;;;;;;;5074145;28;20031;-83
2021/03/13 13:22:44;;;;;;;17.27;3.20;;;;;;;;;;5065482;28;20016;-81
2021/03/13 13:25:09;;;;;;;18.13;2.73;;;;;;;;;;5068522;28;20033;-83
2021/03/13 13:27:35;;;;;;;18.77;2.93;;;;;;;;;;5069030;28;20038;-82
2021/03/13 13:30:00;;;;;;;15.40;2.63;;;;;;;;;;5062136;28;20165;-83
2021/03/13 13:32:25;;;;;;;14.03;2.30;;;;;;;;;;5068040;28;20027;-83
2021/03/13 13:34:51;;;;;;;13.95;2.95;;;;;;;;;;5072139;28;20024;-82
2021/03/13 13:37:17;;;;;;;15.93;2.70;;;;;;;;;;5065045;28;20056;-83
2021/03/13 13:39:42;;;;;;;15.67;3.00;;;;;;;;;;5058562;28;20035;-82
2021/03/13 13:42:08;;;;;;;18.57;3.33;;;;;;;;;;5070143;28;20107;-82
2021/03/13 13:44:33;;;;;;;15.63;2.40;;;;;;;;;;5068473;28;20036;-83
2021/03/13 13:46:58;;;;;;;13.23;2.13;;;;;;;;;;5070279;28;20020;-82
2021/03/13 13:49:23;;;;;;;15.27;2.90;;;;;;;;;;5061728;28;20052;-83
2021/03/13 13:51:49;;;;;;;14.13;3.47;;;;;;;;;;5072724;28;20039;-81
2021/03/13 13:54:14;;;;;;;15.63;2.27;;;;;;;;;;5064793;28;20024;-81
2021/03/13 13:56:39;;;;;;;13.57;1.83;;;;;;;;;;5073132;28;20024;-81
2021/03/13 13:59:05;;;;;;;12.27;2.17;;;;;;;;;;5068451;28;20016;-82
2021/03/13 14:01:32;;;;;;;18.17;2.40;;;;;;;;;;5066793;28;20066;-81
2021/03/13 14:03:57;;;;;;;16.10;2.10;;;;;;;;;;5072919;28;20041;-83
2021/03/13 14:06:22;;;;;;;11.67;1.97;;;;;;;;;;5063003;28;20511;-83
2021/03/13 14:08:47;;;;;;;15.35;2.42;;;;;;;;;;5070138;28;20112;-82
2021/03/13 14:11:12;;;;;;;16.27;2.40;;;;;;;;;;5066942;28;20028;-82
2021/03/13 14:13:37;;;;;;;12.60;2.38;;;;;;;;;;5071785;28;20036;-82
2021/03/13 14:16:03;;;;;;;19.03;2.70;;;;;;;;;;5071525;28;20043;-82
2021/03/13 14:18:28;;;;;;;16.70;2.60;;;;;;;;;;5072022;28;20023;-83
2021/03/13 14:20:53;;;;;;;9.20;1.57;;;;;;;;;;5072296;28;20024;-84
2021/03/13 14:23:19;;;;;;;14.43;2.42;;;;;;;;;;5072199;28;20066;-83
2021/03/13 14:25:44;;;;;;;13.53;2.00;;;;;;;;;;5072931;28;20038;-83
2021/03/13 14:28:09;;;;;;;11.17;1.53;;;;;;;;;;5071880;28;20460;-84
2021/03/13 14:30:34;;;;;;;10.95;2.00;;;;;;;;;;5063407;28;20020;-84
2021/03/13 14:32:59;;;;;;;10.05;1.77;;;;;;;;;;5071996;28;20021;-83